Terminal Aerodrome Forecast
Issued by NWS

Home | Current Version | Previous Version | Graphics & Text | Print | Product List | Glossary On
Versions: 1 2 3 4 5 6 7 8 9 10 11 12 13 14 15
634
FTUS43 KICT 250825 AAA
TAFCNU
TAF AMD
KCNU 250825Z 2508/2606 03011KT P6SM SCT100
     FM251000 04009KT P6SM VCTS BKN100CB
     FM251500 VRB04KT P6SM SCT150
     FM252200 15007KT P6SM SCT150=

USA.gov is the U.S. government's official web portal to all federal, state and local government web resources and services.